Randolph, WI (53957)

2:03 AM CDT on September 29, 2016 (GMT -0500)
Wentler Homestead | | Change Station

Elev 968 ft 43.54 °N, 89.01 °W | Updated 1 second ago

Scattered Clouds
Scattered Clouds
53.0 °F
Feels Like 53.0 °F
N
6.0
Wind Variable Wind from NW
Gusts 11.0 mph

Today
High -- | Low -- °F
--% Chance of Precip.
Yesterday
High -- | Low -- °F
Precip. -- in
Pressure 30.23 in
Visibility 10.0 miles
Clouds Scattered Clouds 800 ft
Dew Point 51 °F
Humidity 93%
Rainfall 0.00 in
Snow Depth Not available.
6:51 AM 6:39 PM
Waning Crescent, 3% visible
METAR KUNU 290655Z AUTO 36010KT 10SM SCT008 12/11 A3023 RMK AO2 T01200111
Pressure 30.23 in
Visibility 10.0 miles
Clouds Scattered Clouds 800 ft
Dew Point 51 °F
Humidity 93%
Rainfall 0.00 in
Snow Depth Not available.
6:51 AM 6:39 PM
Waning Crescent, 3% visible
METAR KUNU 290655Z AUTO 36010KT 10SM SCT008 12/11 A3023 RMK AO2 T01200111

10-Day Weather Forecast

Almanac

Astronomy

Sep. 29, 2016 Rise Set
Actual Time
Civil Twilight
Nautical Twilight
Astronomical Twilight
Moon
Length of Visible Light
Length of Day
Tomorrow will be .
, % of the Moon is Illuminated

Today's Extremes

State Highs State Lows

Community

WunderPhotos

Upload Photos

1,942,446 photos uploaded!

WunderBlog® & News

Nearby

Air Quality

  Air Quality AQ Index Pollutant
Not available.

Snow Depth

Station Depth Elevation

Earthquake Activity

City Distance Mag. Time & Date
Minimum magnitude displayed is 2.5.

Coastal Water Temperatures

Place Temperature

Stations

Nearby Weather Stations

Station Location Temp. Windchill Dew Point Humidity Wind Precip. Elev Updated Type
                   

Watches & Warnings

There are currently no watches in effect.